sensor_id;sensor_type;location;lat;lon;timestamp;temperature;humidity
13198;DHT22;6664;52.514;13.440;2022-12-29T00:01:19;8.30;76.70
13198;DHT22;6664;52.514;13.440;2022-12-29T00:04:11;8.30;76.50
13198;DHT22;6664;52.514;13.440;2022-12-29T00:07:00;8.30;76.20
13198;DHT22;6664;52.514;13.440;2022-12-29T00:09:46;8.30;76.30
13198;DHT22;6664;52.514;13.440;2022-12-29T00:12:32;8.30;76.00
13198;DHT22;6664;52.514;13.440;2022-12-29T00:15:37;8.30;76.00
13198;DHT22;6664;52.514;13.440;2022-12-29T00:18:23;8.30;75.80
13198;DHT22;6664;52.514;13.440;2022-12-29T00:21:14;8.40;75.60
13198;DHT22;6664;52.514;13.440;2022-12-29T00:24:20;8.40;74.90
13198;DHT22;6664;52.514;13.440;2022-12-29T00:27:12;8.50;74.70
13198;DHT22;6664;52.514;13.440;2022-12-29T00:30:19;8.50;74.60
13198;DHT22;6664;52.514;13.440;2022-12-29T00:33:32;8.50;74.30
13198;DHT22;6664;52.514;13.440;2022-12-29T00:36:40;8.50;74.20
13198;DHT22;6664;52.514;13.440;2022-12-29T00:39:27;8.60;73.90
13198;DHT22;6664;52.514;13.440;2022-12-29T00:42:31;8.60;73.90
13198;DHT22;6664;52.514;13.440;2022-12-29T00:45:35;8.70;73.30
13198;DHT22;6664;52.514;13.440;2022-12-29T00:48:21;8.70;73.10
13198;DHT22;6664;52.514;13.440;2022-12-29T00:51:25;8.70;72.90
13198;DHT22;6664;52.514;13.440;2022-12-29T00:54:11;8.70;73.00
13198;DHT22;6664;52.514;13.440;2022-12-29T00:56:58;8.70;72.70
13198;DHT22;6664;52.514;13.440;2022-12-29T00:59:44;8.70;72.80
13198;DHT22;6664;52.514;13.440;2022-12-29T01:02:33;8.70;72.70
13198;DHT22;6664;52.514;13.440;2022-12-29T01:05:19;8.70;73.20
13198;DHT22;6664;52.514;13.440;2022-12-29T01:08:05;8.70;73.10
13198;DHT22;6664;52.514;13.440;2022-12-29T01:10:58;8.60;73.40
13198;DHT22;6664;52.514;13.440;2022-12-29T01:13:44;8.60;73.30
13198;DHT22;6664;52.514;13.440;2022-12-29T01:16:29;8.60;73.40
13198;DHT22;6664;52.514;13.440;2022-12-29T01:19:16;8.60;72.70
13198;DHT22;6664;52.514;13.440;2022-12-29T01:22:02;8.60;73.30
13198;DHT22;6664;52.514;13.440;2022-12-29T01:24:49;8.60;73.00
13198;DHT22;6664;52.514;13.440;2022-12-29T01:27:34;8.70;73.00
13198;DHT22;6664;52.514;13.440;2022-12-29T01:30:22;8.70;72.90
13198;DHT22;6664;52.514;13.440;2022-12-29T01:33:10;8.70;72.30
13198;DHT22;6664;52.514;13.440;2022-12-29T01:36:03;8.70;72.70
13198;DHT22;6664;52.514;13.440;2022-12-29T01:38:50;8.70;73.10
13198;DHT22;6664;52.514;13.440;2022-12-29T01:41:35;8.70;73.00
13198;DHT22;6664;52.514;13.440;2022-12-29T01:44:50;8.70;73.50
13198;DHT22;6664;52.514;13.440;2022-12-29T01:47:45;8.70;74.00
13198;DHT22;6664;52.514;13.440;2022-12-29T01:50:39;8.70;74.00
13198;DHT22;6664;52.514;13.440;2022-12-29T01:53:30;8.60;73.90
13198;DHT22;6664;52.514;13.440;2022-12-29T01:56:19;8.60;74.00
13198;DHT22;6664;52.514;13.440;2022-12-29T01:59:08;8.60;74.60
13198;DHT22;6664;52.514;13.440;2022-12-29T02:01:57;8.60;74.60
13198;DHT22;6664;52.514;13.440;2022-12-29T02:04:43;8.60;74.40
13198;DHT22;6664;52.514;13.440;2022-12-29T02:07:31;8.50;75.10
13198;DHT22;6664;52.514;13.440;2022-12-29T02:10:20;8.50;75.50
13198;DHT22;6664;52.514;13.440;2022-12-29T02:13:08;8.50;75.60
13198;DHT22;6664;52.514;13.440;2022-12-29T02:26:00;8.50;76.30
13198;DHT22;6664;52.514;13.440;2022-12-29T02:32:03;8.50;76.30
13198;DHT22;6664;52.514;13.440;2022-12-29T02:38:33;8.50;74.90
13198;DHT22;6664;52.514;13.440;2022-12-29T02:41:28;8.50;74.70
13198;DHT22;6664;52.514;13.440;2022-12-29T02:44:26;8.50;73.50
13198;DHT22;6664;52.514;13.440;2022-12-29T02:47:31;8.60;74.20
13198;DHT22;6664;52.514;13.440;2022-12-29T02:50:23;8.60;74.00
13198;DHT22;6664;52.514;13.440;2022-12-29T02:53:16;8.60;72.80
13198;DHT22;6664;52.514;13.440;2022-12-29T02:56:23;8.60;72.20
13198;DHT22;6664;52.514;13.440;2022-12-29T02:59:09;8.70;72.30
13198;DHT22;6664;52.514;13.440;2022-12-29T03:11:13;9.00;70.80
13198;DHT22;6664;52.514;13.440;2022-12-29T03:14:36;9.00;70.60
13198;DHT22;6664;52.514;13.440;2022-12-29T03:17:59;9.10;69.60
13198;DHT22;6664;52.514;13.440;2022-12-29T03:20:53;9.30;68.60
13198;DHT22;6664;52.514;13.440;2022-12-29T03:23:43;9.30;68.40
13198;DHT22;6664;52.514;13.440;2022-12-29T03:26:33;9.40;68.00
13198;DHT22;6664;52.514;13.440;2022-12-29T03:29:19;9.40;67.70
13198;DHT22;6664;52.514;13.440;2022-12-29T03:32:07;9.50;67.70
13198;DHT22;6664;52.514;13.440;2022-12-29T03:34:53;9.50;67.70
13198;DHT22;6664;52.514;13.440;2022-12-29T03:37:49;9.50;67.70
13198;DHT22;6664;52.514;13.440;2022-12-29T03:40:39;9.50;67.20
13198;DHT22;6664;52.514;13.440;2022-12-29T03:43:27;9.50;67.50
13198;DHT22;6664;52.514;13.440;2022-12-29T03:46:16;9.50;67.50
13198;DHT22;6664;52.514;13.440;2022-12-29T03:49:02;9.50;67.20
13198;DHT22;6664;52.514;13.440;2022-12-29T03:51:50;9.50;67.10
13198;DHT22;6664;52.514;13.440;2022-12-29T03:54:36;9.60;66.70
13198;DHT22;6664;52.514;13.440;2022-12-29T03:57:22;9.60;66.80
13198;DHT22;6664;52.514;13.440;2022-12-29T04:00:08;9.60;67.10
13198;DHT22;6664;52.514;13.440;2022-12-29T04:02:56;9.60;66.80
13198;DHT22;6664;52.514;13.440;2022-12-29T04:05:42;9.60;66.90
13198;DHT22;6664;52.514;13.440;2022-12-29T04:08:28;9.60;66.80
13198;DHT22;6664;52.514;13.440;2022-12-29T04:11:14;9.60;67.10
13198;DHT22;6664;52.514;13.440;2022-12-29T04:13:59;9.70;67.20
13198;DHT22;6664;52.514;13.440;2022-12-29T04:16:47;9.70;67.10
13198;DHT22;6664;52.514;13.440;2022-12-29T04:19:35;9.70;67.20
13198;DHT22;6664;52.514;13.440;2022-12-29T04:22:24;9.70;67.20
13198;DHT22;6664;52.514;13.440;2022-12-29T04:25:12;9.70;67.30
13198;DHT22;6664;52.514;13.440;2022-12-29T04:27:58;9.70;67.20
13198;DHT22;6664;52.514;13.440;2022-12-29T04:30:44;9.70;67.30
13198;DHT22;6664;52.514;13.440;2022-12-29T04:33:30;9.80;66.90
13198;DHT22;6664;52.514;13.440;2022-12-29T04:36:16;9.80;67.30
13198;DHT22;6664;52.514;13.440;2022-12-29T04:39:02;9.70;67.20
13198;DHT22;6664;52.514;13.440;2022-12-29T04:41:52;9.70;67.90
13198;DHT22;6664;52.514;13.440;2022-12-29T04:44:38;9.70;67.50
13198;DHT22;6664;52.514;13.440;2022-12-29T04:47:29;9.70;67.50
13198;DHT22;6664;52.514;13.440;2022-12-29T04:50:15;9.60;67.70
13198;DHT22;6664;52.514;13.440;2022-12-29T04:53:05;9.60;67.70
13198;DHT22;6664;52.514;13.440;2022-12-29T04:55:51;9.50;67.80
13198;DHT22;6664;52.514;13.440;2022-12-29T04:58:37;9.50;67.70
13198;DHT22;6664;52.514;13.440;2022-12-29T05:01:23;9.50;68.10
13198;DHT22;6664;52.514;13.440;2022-12-29T05:04:11;9.40;68.30
13198;DHT22;6664;52.514;13.440;2022-12-29T05:06:57;9.50;68.60
13198;DHT22;6664;52.514;13.440;2022-12-29T05:09:43;9.60;68.10
13198;DHT22;6664;52.514;13.440;2022-12-29T05:12:33;9.60;68.00
13198;DHT22;6664;52.514;13.440;2022-12-29T05:15:19;9.60;68.00
13198;DHT22;6664;52.514;13.440;2022-12-29T05:18:07;9.70;68.00
13198;DHT22;6664;52.514;13.440;2022-12-29T05:20:52;9.70;68.10
13198;DHT22;6664;52.514;13.440;2022-12-29T05:23:40;9.70;68.00
13198;DHT22;6664;52.514;13.440;2022-12-29T05:26:25;9.70;68.30
13198;DHT22;6664;52.514;13.440;2022-12-29T05:29:14;9.70;68.20
13198;DHT22;6664;52.514;13.440;2022-12-29T05:32:02;9.70;68.30
13198;DHT22;6664;52.514;13.440;2022-12-29T05:34:50;9.70;68.50
13198;DHT22;6664;52.514;13.440;2022-12-29T05:37:36;9.80;68.60
13198;DHT22;6664;52.514;13.440;2022-12-29T05:40:22;9.90;68.60
13198;DHT22;6664;52.514;13.440;2022-12-29T05:43:08;9.90;68.20
13198;DHT22;6664;52.514;13.440;2022-12-29T05:45:54;9.90;68.30
13198;DHT22;6664;52.514;13.440;2022-12-29T05:48:40;10.00;67.20
13198;DHT22;6664;52.514;13.440;2022-12-29T05:51:28;10.00;67.20
13198;DHT22;6664;52.514;13.440;2022-12-29T05:54:14;10.00;67.20
13198;DHT22;6664;52.514;13.440;2022-12-29T05:56:59;10.10;67.10
13198;DHT22;6664;52.514;13.440;2022-12-29T05:59:47;10.20;67.10
13198;DHT22;6664;52.514;13.440;2022-12-29T06:02:33;10.20;66.90
13198;DHT22;6664;52.514;13.440;2022-12-29T06:05:21;10.30;66.70
13198;DHT22;6664;52.514;13.440;2022-12-29T06:08:06;10.20;66.70
13198;DHT22;6664;52.514;13.440;2022-12-29T06:10:53;10.30;66.70
13198;DHT22;6664;52.514;13.440;2022-12-29T06:13:38;10.30;66.70
13198;DHT22;6664;52.514;13.440;2022-12-29T06:16:24;10.30;66.70
13198;DHT22;6664;52.514;13.440;2022-12-29T06:19:10;10.40;66.70
13198;DHT22;6664;52.514;13.440;2022-12-29T06:21:55;10.40;66.50
13198;DHT22;6664;52.514;13.440;2022-12-29T06:24:41;10.40;66.60
13198;DHT22;6664;52.514;13.440;2022-12-29T06:27:27;10.50;66.70
13198;DHT22;6664;52.514;13.440;2022-12-29T06:30:14;10.50;66.60
13198;DHT22;6664;52.514;13.440;2022-12-29T06:33:00;10.50;66.40
13198;DHT22;6664;52.514;13.440;2022-12-29T06:35:48;10.50;66.30
13198;DHT22;6664;52.514;13.440;2022-12-29T06:38:34;10.50;66.50
13198;DHT22;6664;52.514;13.440;2022-12-29T06:41:21;10.50;66.30
13198;DHT22;6664;52.514;13.440;2022-12-29T06:44:14;10.60;67.10
13198;DHT22;6664;52.514;13.440;2022-12-29T06:47:01;10.60;66.50
13198;DHT22;6664;52.514;13.440;2022-12-29T06:49:47;10.60;66.40
13198;DHT22;6664;52.514;13.440;2022-12-29T06:52:33;10.50;66.60
13198;DHT22;6664;52.514;13.440;2022-12-29T06:55:19;10.50;66.60
13198;DHT22;6664;52.514;13.440;2022-12-29T06:58:04;10.50;66.80
13198;DHT22;6664;52.514;13.440;2022-12-29T07:00:50;10.40;66.80
13198;DHT22;6664;52.514;13.440;2022-12-29T07:03:36;10.30;67.10
13198;DHT22;6664;52.514;13.440;2022-12-29T07:06:23;10.20;67.40
13198;DHT22;6664;52.514;13.440;2022-12-29T07:09:09;10.20;67.60
13198;DHT22;6664;52.514;13.440;2022-12-29T07:11:55;10.10;68.00
13198;DHT22;6664;52.514;13.440;2022-12-29T07:14:40;10.10;68.50
13198;DHT22;6664;52.514;13.440;2022-12-29T07:17:28;10.00;68.20
13198;DHT22;6664;52.514;13.440;2022-12-29T07:20:13;9.90;69.70
13198;DHT22;6664;52.514;13.440;2022-12-29T07:22:59;9.90;70.00
13198;DHT22;6664;52.514;13.440;2022-12-29T07:25:46;10.00;68.70
13198;DHT22;6664;52.514;13.440;2022-12-29T07:28:35;10.00;68.70
13198;DHT22;6664;52.514;13.440;2022-12-29T07:31:25;10.00;69.00
13198;DHT22;6664;52.514;13.440;2022-12-29T07:34:11;10.00;69.20
13198;DHT22;6664;52.514;13.440;2022-12-29T07:36:56;10.00;69.00
13198;DHT22;6664;52.514;13.440;2022-12-29T07:39:41;10.10;68.90
13198;DHT22;6664;52.514;13.440;2022-12-29T07:42:27;10.00;69.20
13198;DHT22;6664;52.514;13.440;2022-12-29T07:45:13;9.90;70.40
13198;DHT22;6664;52.514;13.440;2022-12-29T07:47:59;9.90;70.80
13198;DHT22;6664;52.514;13.440;2022-12-29T07:50:44;9.90;70.90
13198;DHT22;6664;52.514;13.440;2022-12-29T07:53:30;9.90;71.20
13198;DHT22;6664;52.514;13.440;2022-12-29T07:56:16;9.90;71.40
13198;DHT22;6664;52.514;13.440;2022-12-29T07:59:04;10.10;69.90
13198;DHT22;6664;52.514;13.440;2022-12-29T08:01:50;10.20;70.60
13198;DHT22;6664;52.514;13.440;2022-12-29T08:04:36;10.30;69.50
13198;DHT22;6664;52.514;13.440;2022-12-29T08:07:21;10.50;68.70
13198;DHT22;6664;52.514;13.440;2022-12-29T08:10:10;10.50;68.40
13198;DHT22;6664;52.514;13.440;2022-12-29T08:13:01;10.50;68.40
13198;DHT22;6664;52.514;13.440;2022-12-29T08:15:47;10.60;68.00
13198;DHT22;6664;52.514;13.440;2022-12-29T08:18:32;10.60;68.00
13198;DHT22;6664;52.514;13.440;2022-12-29T08:21:18;10.60;67.70
13198;DHT22;6664;52.514;13.440;2022-12-29T08:24:05;10.70;67.90
13198;DHT22;6664;52.514;13.440;2022-12-29T08:26:52;10.70;67.80
13198;DHT22;6664;52.514;13.440;2022-12-29T08:29:37;10.70;67.30
13198;DHT22;6664;52.514;13.440;2022-12-29T08:32:24;10.70;67.40
13198;DHT22;6664;52.514;13.440;2022-12-29T08:35:11;10.50;67.60
13198;DHT22;6664;52.514;13.440;2022-12-29T08:37:58;10.50;67.80
13198;DHT22;6664;52.514;13.440;2022-12-29T08:40:43;10.30;68.00
13198;DHT22;6664;52.514;13.440;2022-12-29T08:43:29;10.30;68.50
13198;DHT22;6664;52.514;13.440;2022-12-29T08:46:15;10.30;68.70
13198;DHT22;6664;52.514;13.440;2022-12-29T08:49:01;10.30;68.80
13198;DHT22;6664;52.514;13.440;2022-12-29T08:51:50;10.30;68.70
13198;DHT22;6664;52.514;13.440;2022-12-29T08:54:35;10.20;69.20
13198;DHT22;6664;52.514;13.440;2022-12-29T08:57:21;10.30;69.30
13198;DHT22;6664;52.514;13.440;2022-12-29T09:00:08;10.30;69.20
13198;DHT22;6664;52.514;13.440;2022-12-29T09:02:54;10.40;68.90
13198;DHT22;6664;52.514;13.440;2022-12-29T09:05:40;10.40;68.90
13198;DHT22;6664;52.514;13.440;2022-12-29T09:08:29;10.40;68.90
13198;DHT22;6664;52.514;13.440;2022-12-29T09:11:22;10.50;68.80
13198;DHT22;6664;52.514;13.440;2022-12-29T09:14:08;10.40;68.70
13198;DHT22;6664;52.514;13.440;2022-12-29T09:16:55;10.40;69.10
13198;DHT22;6664;52.514;13.440;2022-12-29T09:19:59;10.30;69.30
13198;DHT22;6664;52.514;13.440;2022-12-29T09:22:45;10.20;69.60
13198;DHT22;6664;52.514;13.440;2022-12-29T09:25:31;10.20;69.70
13198;DHT22;6664;52.514;13.440;2022-12-29T09:28:19;10.20;69.90
13198;DHT22;6664;52.514;13.440;2022-12-29T09:31:05;10.30;69.90
13198;DHT22;6664;52.514;13.440;2022-12-29T09:33:51;10.30;70.00
13198;DHT22;6664;52.514;13.440;2022-12-29T09:36:36;10.40;69.70
13198;DHT22;6664;52.514;13.440;2022-12-29T09:39:22;10.40;69.50
13198;DHT22;6664;52.514;13.440;2022-12-29T09:42:13;10.40;69.30
13198;DHT22;6664;52.514;13.440;2022-12-29T09:45:18;10.50;69.30
13198;DHT22;6664;52.514;13.440;2022-12-29T09:48:14;10.50;69.20
13198;DHT22;6664;52.514;13.440;2022-12-29T09:51:05;10.60;69.00
13198;DHT22;6664;52.514;13.440;2022-12-29T09:53:58;10.70;68.80
13198;DHT22;6664;52.514;13.440;2022-12-29T09:56:46;11.00;68.40
13198;DHT22;6664;52.514;13.440;2022-12-29T09:59:45;11.20;67.40
13198;DHT22;6664;52.514;13.440;2022-12-29T10:05:30;11.50;66.20
13198;DHT22;6664;52.514;13.440;2022-12-29T10:08:42;11.60;65.60
13198;DHT22;6664;52.514;13.440;2022-12-29T10:15:04;11.40;66.00
13198;DHT22;6664;52.514;13.440;2022-12-29T10:24:21;11.30;66.40
13198;DHT22;6664;52.514;13.440;2022-12-29T10:27:12;11.30;66.50
13198;DHT22;6664;52.514;13.440;2022-12-29T10:29:59;11.50;66.40
13198;DHT22;6664;52.514;13.440;2022-12-29T10:32:56;11.60;66.60
13198;DHT22;6664;52.514;13.440;2022-12-29T10:35:46;12.00;65.50
13198;DHT22;6664;52.514;13.440;2022-12-29T10:38:40;12.30;64.10
13198;DHT22;6664;52.514;13.440;2022-12-29T10:41:42;12.60;63.20
13198;DHT22;6664;52.514;13.440;2022-12-29T10:44:30;12.70;62.60
13198;DHT22;6664;52.514;13.440;2022-12-29T10:47:19;12.60;62.30
13198;DHT22;6664;52.514;13.440;2022-12-29T10:50:05;12.60;62.70
13198;DHT22;6664;52.514;13.440;2022-12-29T10:52:52;12.60;62.30
13198;DHT22;6664;52.514;13.440;2022-12-29T10:55:39;12.80;62.20
13198;DHT22;6664;52.514;13.440;2022-12-29T10:58:27;12.80;61.20
13198;DHT22;6664;52.514;13.440;2022-12-29T11:01:14;12.80;60.80
13198;DHT22;6664;52.514;13.440;2022-12-29T11:04:10;13.00;60.80
13198;DHT22;6664;52.514;13.440;2022-12-29T11:07:05;13.00;60.30
13198;DHT22;6664;52.514;13.440;2022-12-29T11:10:18;13.20;60.00
13198;DHT22;6664;52.514;13.440;2022-12-29T11:13:12;13.10;59.60
13198;DHT22;6664;52.514;13.440;2022-12-29T11:16:00;13.10;59.80
13198;DHT22;6664;52.514;13.440;2022-12-29T11:18:48;13.10;59.50
13198;DHT22;6664;52.514;13.440;2022-12-29T11:21:38;13.00;59.50
13198;DHT22;6664;52.514;13.440;2022-12-29T11:24:28;13.00;59.70
13198;DHT22;6664;52.514;13.440;2022-12-29T11:27:21;12.90;60.10
13198;DHT22;6664;52.514;13.440;2022-12-29T11:30:23;12.80;60.60
13198;DHT22;6664;52.514;13.440;2022-12-29T11:33:10;12.80;60.90
13198;DHT22;6664;52.514;13.440;2022-12-29T11:36:12;12.80;60.80
13198;DHT22;6664;52.514;13.440;2022-12-29T11:39:02;12.80;61.30
13198;DHT22;6664;52.514;13.440;2022-12-29T11:41:54;12.80;62.00
13198;DHT22;6664;52.514;13.440;2022-12-29T11:44:46;12.70;63.70
13198;DHT22;6664;52.514;13.440;2022-12-29T11:47:32;12.60;63.70
13198;DHT22;6664;52.514;13.440;2022-12-29T11:53:27;12.30;65.40
13198;DHT22;6664;52.514;13.440;2022-12-29T11:56:19;12.30;65.60
13198;DHT22;6664;52.514;13.440;2022-12-29T12:11:03;11.90;68.00
13198;DHT22;6664;52.514;13.440;2022-12-29T12:14:00;11.70;69.00
13198;DHT22;6664;52.514;13.440;2022-12-29T12:16:55;11.60;69.40
13198;DHT22;6664;52.514;13.440;2022-12-29T12:19:53;11.50;70.90
13198;DHT22;6664;52.514;13.440;2022-12-29T12:22:46;11.30;71.60
13198;DHT22;6664;52.514;13.440;2022-12-29T12:25:39;11.20;72.60
13198;DHT22;6664;52.514;13.440;2022-12-29T12:31:49;11.00;73.30
13198;DHT22;6664;52.514;13.440;2022-12-29T12:34:42;11.10;73.50
13198;DHT22;6664;52.514;13.440;2022-12-29T12:56:26;11.10;73.30
13198;DHT22;6664;52.514;13.440;2022-12-29T13:03:27;11.00;73.00
13198;DHT22;6664;52.514;13.440;2022-12-29T13:06:03;10.90;73.30
13198;DHT22;6664;52.514;13.440;2022-12-29T13:12:02;10.60;74.00
13198;DHT22;6664;52.514;13.440;2022-12-29T13:21:35;10.50;75.70
13198;DHT22;6664;52.514;13.440;2022-12-29T13:30:27;10.40;76.50
13198;DHT22;6664;52.514;13.440;2022-12-29T13:36:44;10.40;77.50
13198;DHT22;6664;52.514;13.440;2022-12-29T13:39:34;10.40;77.80
13198;DHT22;6664;52.514;13.440;2022-12-29T13:42:22;10.40;77.60
13198;DHT22;6664;52.514;13.440;2022-12-29T13:45:19;10.50;77.70
13198;DHT22;6664;52.514;13.440;2022-12-29T13:48:23;11.00;76.50
13198;DHT22;6664;52.514;13.440;2022-12-29T13:51:11;11.30;75.10
13198;DHT22;6664;52.514;13.440;2022-12-29T13:54:30;11.10;75.50
13198;DHT22;6664;52.514;13.440;2022-12-29T13:57:52;11.00;75.50
13198;DHT22;6664;52.514;13.440;2022-12-29T14:03:53;10.90;76.40
13198;DHT22;6664;52.514;13.440;2022-12-29T14:06:40;10.80;76.40
13198;DHT22;6664;52.514;13.440;2022-12-29T14:12:43;10.60;76.90
13198;DHT22;6664;52.514;13.440;2022-12-29T14:15:31;10.50;77.30
13198;DHT22;6664;52.514;13.440;2022-12-29T14:18:21;10.50;77.80
13198;DHT22;6664;52.514;13.440;2022-12-29T14:24:37;10.40;78.50
13198;DHT22;6664;52.514;13.440;2022-12-29T14:30:51;10.20;78.50
13198;DHT22;6664;52.514;13.440;2022-12-29T14:33:38;10.30;79.00
13198;DHT22;6664;52.514;13.440;2022-12-29T14:36:33;10.20;78.80
13198;DHT22;6664;52.514;13.440;2022-12-29T14:39:40;10.10;79.30
13198;DHT22;6664;52.514;13.440;2022-12-29T14:42:29;10.10;79.50
13198;DHT22;6664;52.514;13.440;2022-12-29T14:51:30;10.30;79.30
13198;DHT22;6664;52.514;13.440;2022-12-29T14:57:39;10.40;78.20
13198;DHT22;6664;52.514;13.440;2022-12-29T15:00:35;10.40;78.00
13198;DHT22;6664;52.514;13.440;2022-12-29T15:03:27;10.40;77.90
13198;DHT22;6664;52.514;13.440;2022-12-29T15:06:15;10.40;78.00
13198;DHT22;6664;52.514;13.440;2022-12-29T15:15:36;10.40;77.90
13198;DHT22;6664;52.514;13.440;2022-12-29T15:18:31;10.50;77.40
13198;DHT22;6664;52.514;13.440;2022-12-29T15:21:24;10.60;77.30
13198;DHT22;6664;52.514;13.440;2022-12-29T15:24:13;10.60;77.70
13198;DHT22;6664;52.514;13.440;2022-12-29T15:27:03;10.50;78.00
13198;DHT22;6664;52.514;13.440;2022-12-29T15:30:11;10.40;77.50
13198;DHT22;6664;52.514;13.440;2022-12-29T15:33:02;10.20;76.80
13198;DHT22;6664;52.514;13.440;2022-12-29T15:35:53;10.00;77.50
13198;DHT22;6664;52.514;13.440;2022-12-29T15:38:40;9.70;79.80
13198;DHT22;6664;52.514;13.440;2022-12-29T15:41:49;9.60;80.90
13198;DHT22;6664;52.514;13.440;2022-12-29T15:44:45;9.50;81.90
13198;DHT22;6664;52.514;13.440;2022-12-29T15:47:37;9.50;82.80
13198;DHT22;6664;52.514;13.440;2022-12-29T15:50:32;9.50;83.10
13198;DHT22;6664;52.514;13.440;2022-12-29T15:53:29;9.40;83.10
13198;DHT22;6664;52.514;13.440;2022-12-29T15:56:16;9.30;83.00
13198;DHT22;6664;52.514;13.440;2022-12-29T15:59:01;9.40;84.00
13198;DHT22;6664;52.514;13.440;2022-12-29T16:01:47;9.30;83.60
13198;DHT22;6664;52.514;13.440;2022-12-29T16:04:33;9.30;84.10
13198;DHT22;6664;52.514;13.440;2022-12-29T16:07:55;9.30;83.30
13198;DHT22;6664;52.514;13.440;2022-12-29T16:10:42;9.40;83.10
13198;DHT22;6664;52.514;13.440;2022-12-29T16:13:38;9.40;83.10
13198;DHT22;6664;52.514;13.440;2022-12-29T16:16:28;9.50;82.50
13198;DHT22;6664;52.514;13.440;2022-12-29T16:19:28;9.60;82.10
13198;DHT22;6664;52.514;13.440;2022-12-29T16:22:26;9.70;80.60
13198;DHT22;6664;52.514;13.440;2022-12-29T16:25:19;9.60;80.00
13198;DHT22;6664;52.514;13.440;2022-12-29T16:28:20;9.60;79.80
13198;DHT22;6664;52.514;13.440;2022-12-29T16:31:25;9.60;80.20
13198;DHT22;6664;52.514;13.440;2022-12-29T16:34:29;9.50;79.30
13198;DHT22;6664;52.514;13.440;2022-12-29T16:37:34;9.50;78.40
13198;DHT22;6664;52.514;13.440;2022-12-29T16:40:24;9.50;78.30
13198;DHT22;6664;52.514;13.440;2022-12-29T16:43:27;9.50;76.70
13198;DHT22;6664;52.514;13.440;2022-12-29T16:46:25;9.50;76.10
13198;DHT22;6664;52.514;13.440;2022-12-29T16:49:16;9.40;75.60
13198;DHT22;6664;52.514;13.440;2022-12-29T16:52:29;9.50;74.50
13198;DHT22;6664;52.514;13.440;2022-12-29T16:55:19;9.60;73.60
13198;DHT22;6664;52.514;13.440;2022-12-29T16:58:05;9.70;73.20
13198;DHT22;6664;52.514;13.440;2022-12-29T17:00:56;9.70;73.10
13198;DHT22;6664;52.514;13.440;2022-12-29T17:03:46;9.60;73.00
13198;DHT22;6664;52.514;13.440;2022-12-29T17:06:35;9.60;72.70
13198;DHT22;6664;52.514;13.440;2022-12-29T17:09:25;9.50;72.50
13198;DHT22;6664;52.514;13.440;2022-12-29T17:12:16;9.50;72.00
13198;DHT22;6664;52.514;13.440;2022-12-29T17:15:05;9.50;71.60
13198;DHT22;6664;52.514;13.440;2022-12-29T17:17:59;9.40;71.10
13198;DHT22;6664;52.514;13.440;2022-12-29T17:20:45;9.50;70.70
13198;DHT22;6664;52.514;13.440;2022-12-29T17:23:33;9.60;69.90
13198;DHT22;6664;52.514;13.440;2022-12-29T17:26:19;9.80;68.60
13198;DHT22;6664;52.514;13.440;2022-12-29T17:29:05;9.90;68.10
13198;DHT22;6664;52.514;13.440;2022-12-29T17:31:53;10.10;66.40
13198;DHT22;6664;52.514;13.440;2022-12-29T17:34:40;10.20;65.50
13198;DHT22;6664;52.514;13.440;2022-12-29T17:40:17;10.20;65.60
13198;DHT22;6664;52.514;13.440;2022-12-29T17:43:03;10.20;64.30
13198;DHT22;6664;52.514;13.440;2022-12-29T17:45:56;10.30;63.80
13198;DHT22;6664;52.514;13.440;2022-12-29T17:48:42;10.40;63.10
13198;DHT22;6664;52.514;13.440;2022-12-29T17:51:36;10.50;62.80
13198;DHT22;6664;52.514;13.440;2022-12-29T17:54:23;10.50;62.30
13198;DHT22;6664;52.514;13.440;2022-12-29T17:57:17;10.50;62.30
13198;DHT22;6664;52.514;13.440;2022-12-29T18:00:03;10.50;62.30
13198;DHT22;6664;52.514;13.440;2022-12-29T18:02:49;10.50;62.10
13198;DHT22;6664;52.514;13.440;2022-12-29T18:05:37;10.40;62.20
13198;DHT22;6664;52.514;13.440;2022-12-29T18:08:23;10.30;62.60
13198;DHT22;6664;52.514;13.440;2022-12-29T18:11:23;10.10;63.20
13198;DHT22;6664;52.514;13.440;2022-12-29T18:14:14;9.90;64.40
13198;DHT22;6664;52.514;13.440;2022-12-29T18:17:00;9.90;65.70
13198;DHT22;6664;52.514;13.440;2022-12-29T18:19:46;10.00;63.90
13198;DHT22;6664;52.514;13.440;2022-12-29T18:22:32;9.90;65.10
13198;DHT22;6664;52.514;13.440;2022-12-29T18:28:12;9.60;65.90
13198;DHT22;6664;52.514;13.440;2022-12-29T18:31:02;9.50;66.40
13198;DHT22;6664;52.514;13.440;2022-12-29T18:33:52;9.50;66.60
13198;DHT22;6664;52.514;13.440;2022-12-29T18:36:38;9.40;67.00
13198;DHT22;6664;52.514;13.440;2022-12-29T18:39:26;9.60;66.60
13198;DHT22;6664;52.514;13.440;2022-12-29T18:42:15;9.60;66.60
13198;DHT22;6664;52.514;13.440;2022-12-29T18:45:17;9.60;66.90
13198;DHT22;6664;52.514;13.440;2022-12-29T18:48:03;9.50;67.10
13198;DHT22;6664;52.514;13.440;2022-12-29T18:50:51;9.60;67.60
13198;DHT22;6664;52.514;13.440;2022-12-29T18:53:37;9.60;67.40
13198;DHT22;6664;52.514;13.440;2022-12-29T18:56:23;9.70;67.50
13198;DHT22;6664;52.514;13.440;2022-12-29T18:59:09;9.70;67.50
13198;DHT22;6664;52.514;13.440;2022-12-29T19:01:54;9.70;68.00
13198;DHT22;6664;52.514;13.440;2022-12-29T19:04:40;9.70;67.00
13198;DHT22;6664;52.514;13.440;2022-12-29T19:07:25;9.70;66.90
13198;DHT22;6664;52.514;13.440;2022-12-29T19:10:14;9.80;67.10
13198;DHT22;6664;52.514;13.440;2022-12-29T19:13:00;9.80;66.60
13198;DHT22;6664;52.514;13.440;2022-12-29T19:15:46;9.70;66.60
13198;DHT22;6664;52.514;13.440;2022-12-29T19:18:32;9.70;66.60
13198;DHT22;6664;52.514;13.440;2022-12-29T19:21:32;9.50;67.00
13198;DHT22;6664;52.514;13.440;2022-12-29T19:24:17;9.10;67.60
13198;DHT22;6664;52.514;13.440;2022-12-29T19:27:03;9.00;68.20
13198;DHT22;6664;52.514;13.440;2022-12-29T19:29:50;9.00;68.70
13198;DHT22;6664;52.514;13.440;2022-12-29T19:32:38;8.90;69.60
13198;DHT22;6664;52.514;13.440;2022-12-29T19:35:27;8.70;69.90
13198;DHT22;6664;52.514;13.440;2022-12-29T19:38:13;8.60;70.90
13198;DHT22;6664;52.514;13.440;2022-12-29T19:41:01;8.40;71.60
13198;DHT22;6664;52.514;13.440;2022-12-29T19:43:50;8.30;72.60
13198;DHT22;6664;52.514;13.440;2022-12-29T19:46:36;8.30;73.00
13198;DHT22;6664;52.514;13.440;2022-12-29T19:49:22;8.30;73.60
13198;DHT22;6664;52.514;13.440;2022-12-29T19:52:08;8.50;74.10
13198;DHT22;6664;52.514;13.440;2022-12-29T19:54:54;8.70;74.00
13198;DHT22;6664;52.514;13.440;2022-12-29T19:57:44;8.90;73.50
13198;DHT22;6664;52.514;13.440;2022-12-29T20:00:32;9.00;73.00
13198;DHT22;6664;52.514;13.440;2022-12-29T20:03:20;9.10;72.60
13198;DHT22;6664;52.514;13.440;2022-12-29T20:06:09;9.20;72.70
13198;DHT22;6664;52.514;13.440;2022-12-29T20:08:55;9.30;72.50
13198;DHT22;6664;52.514;13.440;2022-12-29T20:11:40;9.30;72.50
13198;DHT22;6664;52.514;13.440;2022-12-29T20:14:28;9.30;72.20
13198;DHT22;6664;52.514;13.440;2022-12-29T20:17:17;9.40;72.30
13198;DHT22;6664;52.514;13.440;2022-12-29T20:20:25;9.40;72.20